createdAt,value
2023-04-02T00:02:32.443Z,101353.31
2023-04-02T00:05:54.829Z,101358.50
2023-04-02T00:09:04.641Z,101367.19
2023-04-02T00:12:16.965Z,101375.78
2023-04-02T00:15:21.354Z,101383.56
2023-04-02T00:18:27.224Z,101394.81
2023-04-02T00:21:39.486Z,101397.41
2023-04-02T00:24:44.927Z,101396.56
2023-04-02T00:27:49.049Z,101410.38
2023-04-02T00:31:00.132Z,101419.88
2023-04-02T00:34:04.961Z,101416.41
2023-04-02T00:37:18.355Z,101428.50
2023-04-02T00:40:30.797Z,101426.75
2023-04-02T00:43:38.394Z,101430.25
2023-04-02T00:46:49.511Z,101439.75
2023-04-02T00:50:04.816Z,101444.88
2023-04-02T00:53:22.078Z,101444.88
2023-04-02T00:56:42.707Z,101450.06
2023-04-02T00:59:59.702Z,101456.13
2023-04-02T01:03:19.305Z,101459.56
2023-04-02T01:06:31.025Z,101456.13
2023-04-02T01:10:26.020Z,101453.53
2023-04-02T01:13:44.998Z,101465.59
2023-04-02T01:17:08.607Z,101468.16
2023-04-02T01:20:59.199Z,101465.59
2023-04-02T01:24:04.443Z,101474.25
2023-04-02T01:27:53.614Z,101480.28
2023-04-02T01:31:01.471Z,101481.13
2023-04-02T01:34:11.459Z,101488.91
2023-04-02T01:37:58.366Z,101495.81
2023-04-02T01:41:11.976Z,101491.47
2023-04-02T01:44:40.599Z,101507.91
2023-04-02T01:47:45.592Z,101502.72
2023-04-02T01:50:55.174Z,101509.63
2023-04-02T01:54:06.063Z,101530.31
2023-04-02T01:57:11.083Z,101529.47
2023-04-02T02:00:17.809Z,101527.75
2023-04-02T02:03:22.599Z,101532.09
2023-04-02T02:06:27.497Z,101538.13
2023-04-02T02:09:36.112Z,101545.03
2023-04-02T02:12:43.305Z,101542.44
2023-04-02T02:15:48.068Z,101548.47
2023-04-02T02:18:57.696Z,101550.19
2023-04-02T02:22:21.894Z,101553.63
2023-04-02T02:25:30.896Z,101550.19
2023-04-02T02:28:39.180Z,101559.66
2023-04-02T02:31:45.895Z,101563.13
2023-04-02T02:35:13.002Z,101567.44
2023-04-02T02:39:02.001Z,101574.34
2023-04-02T02:42:16.115Z,101584.69
2023-04-02T02:45:24.349Z,101586.41
2023-04-02T02:48:37.856Z,101596.75
2023-04-02T02:52:14.863Z,101605.38
2023-04-02T02:55:27.573Z,101617.47
2023-04-02T02:58:34.239Z,101622.63
2023-04-02T03:01:38.997Z,101630.41
2023-04-02T03:04:53.095Z,101635.56
2023-04-02T03:08:01.416Z,101639.88
2023-04-02T03:11:17.511Z,101648.47
2023-04-02T03:14:46.379Z,101648.47
2023-04-02T03:18:22.358Z,101651.06
2023-04-02T03:21:57.136Z,101663.97
2023-04-02T03:25:21.505Z,101679.50
2023-04-02T03:28:34.526Z,101682.91
2023-04-02T03:31:44.254Z,101689.81
2023-04-02T03:35:01.830Z,101696.66
2023-04-02T03:38:32.812Z,101704.44
2023-04-02T03:41:49.202Z,101713.91
2023-04-02T03:45:12.107Z,101723.38
2023-04-02T03:48:41.228Z,101726.84
2023-04-02T03:52:26.947Z,101732.84
2023-04-02T03:55:37.900Z,101739.75
2023-04-02T03:58:50.868Z,101748.34
2023-04-02T04:02:18.674Z,101753.53
2023-04-02T04:05:28.880Z,101760.50
2023-04-02T04:08:50.404Z,101765.66
2023-04-02T04:12:32.554Z,101772.56
2023-04-02T04:15:39.281Z,101779.53
2023-04-02T04:18:49.468Z,101780.41
2023-04-02T04:21:57.984Z,101783.03
2023-04-02T04:25:20.983Z,101789.13
2023-04-02T04:28:50.356Z,101788.34
2023-04-02T04:31:56.178Z,101793.53
2023-04-02T04:35:31.186Z,101797.00
2023-04-02T04:38:40.848Z,101798.75
2023-04-02T04:41:48.090Z,101796.16
2023-04-02T04:45:02.589Z,101808.22
2023-04-02T04:48:30.650Z,101807.44
2023-04-02T04:51:45.520Z,101814.34
2023-04-02T04:54:49.840Z,101812.59
2023-04-02T04:58:03.992Z,101817.81
2023-04-02T05:01:19.232Z,101825.63
2023-04-02T05:04:37.167Z,101830.81
2023-04-02T05:07:51.422Z,101839.44
2023-04-02T05:11:09.611Z,101841.19
2023-04-02T05:14:52.452Z,101840.31
2023-04-02T05:18:28.194Z,101848.94
2023-04-02T05:21:57.593Z,101838.59
2023-04-02T05:25:07.748Z,101848.09
2023-04-02T05:28:26.670Z,101855.91
2023-04-02T05:31:48.854Z,101857.59
2023-04-02T05:34:56.977Z,101855.91
2023-04-02T05:38:02.058Z,101861.06
2023-04-02T05:41:20.658Z,101866.25
2023-04-02T05:45:05.167Z,101866.25
2023-04-02T05:48:26.341Z,101874.88
2023-04-02T05:51:46.063Z,101869.69
2023-04-02T05:55:19.843Z,101885.25
2023-04-02T05:59:11.451Z,101902.53
2023-04-02T06:02:53.177Z,101906.88
2023-04-02T06:06:03.755Z,101918.97
2023-04-02T06:09:28.992Z,101919.81
2023-04-02T06:12:45.973Z,101927.63
2023-04-02T06:15:50.832Z,101922.47
2023-04-02T06:18:56.494Z,101925.91
2023-04-02T06:22:36.845Z,101936.31
2023-04-02T06:25:52.782Z,101937.16
2023-04-02T06:29:24.856Z,101944.13
2023-04-02T06:32:29.273Z,101947.56
2023-04-02T06:35:37.491Z,101951.88
2023-04-02T06:38:43.916Z,101945.84
2023-04-02T06:42:19.347Z,101954.50
2023-04-02T06:45:30.672Z,101954.50
2023-04-02T06:48:38.076Z,101956.22
2023-04-02T06:51:44.445Z,101977.00
2023-04-02T06:54:49.357Z,101971.81
2023-04-02T06:57:53.663Z,101970.06
2023-04-02T07:00:57.867Z,101978.72
2023-04-02T07:04:02.437Z,101983.06
2023-04-02T07:07:06.803Z,101981.31
2023-04-02T07:10:12.828Z,101983.88
2023-04-02T07:13:22.850Z,101994.28
2023-04-02T07:16:29.391Z,101996.88
2023-04-02T07:19:33.738Z,101995.97
2023-04-02T07:22:37.998Z,101999.44
2023-04-02T07:25:42.632Z,102008.09
2023-04-02T07:28:46.856Z,102009.81
2023-04-02T07:31:52.966Z,102015.84
2023-04-02T07:34:57.905Z,102021.03
2023-04-02T07:38:02.324Z,102025.34
2023-04-02T07:41:08.076Z,102014.06
2023-04-02T07:44:12.365Z,102023.56
2023-04-02T07:47:16.776Z,102021.84
2023-04-02T07:50:21.325Z,102037.38
2023-04-02T07:53:37.943Z,102033.91
2023-04-02T07:56:42.425Z,102047.75
2023-04-02T07:59:47.441Z,102043.38
2023-04-02T08:02:52.947Z,102037.25
2023-04-02T08:05:58.836Z,102042.44
2023-04-02T08:09:04.016Z,102036.34
2023-04-02T08:12:13.116Z,102047.59
2023-04-02T08:15:18.537Z,102044.97
2023-04-02T08:18:23.663Z,102059.66
2023-04-02T08:21:28.121Z,102054.44
2023-04-02T08:24:32.256Z,102058.69
2023-04-02T08:27:36.841Z,102049.13
2023-04-02T08:30:41.872Z,102069.94
2023-04-02T08:33:47.018Z,102073.41
2023-04-02T08:36:50.994Z,102080.28
2023-04-02T08:39:55.460Z,102082.88
2023-04-02T08:43:28.766Z,102086.25
2023-04-02T08:46:50.017Z,102088.72
2023-04-02T08:50:10.403Z,102095.56
2023-04-02T08:53:29.699Z,102095.53
2023-04-02T08:56:43.448Z,102095.50
2023-04-02T08:59:51.483Z,102098.13
2023-04-02T09:03:08.479Z,102092.88
2023-04-02T09:06:17.779Z,102092.84
2023-04-02T09:09:23.785Z,102106.63
2023-04-02T09:12:32.428Z,102110.91
2023-04-02T09:15:37.010Z,102113.47
2023-04-02T09:18:44.075Z,102128.22
2023-04-02T09:22:06.426Z,102126.38
2023-04-02T09:25:22.608Z,102124.41
2023-04-02T09:28:27.150Z,102125.19
2023-04-02T09:31:46.462Z,102135.53
2023-04-02T09:34:51.110Z,102135.56
2023-04-02T09:38:07.915Z,102133.88
2023-04-02T09:41:22.466Z,102141.59
2023-04-02T09:44:28.240Z,102144.13
2023-04-02T09:47:32.886Z,102138.06
2023-04-02T09:50:37.897Z,102142.31
2023-04-02T09:53:46.612Z,102145.72
2023-04-02T09:57:05.819Z,102146.34
2023-04-02T10:00:31.249Z,102147.13
2023-04-02T10:03:37.118Z,102145.31
2023-04-02T10:06:50.587Z,102144.44
2023-04-02T10:10:38.961Z,102170.47
2023-04-02T10:14:11.364Z,102164.34
2023-04-02T10:17:24.705Z,102173.91
2023-04-02T10:20:36.359Z,102170.41
2023-04-02T10:23:46.888Z,102174.53
2023-04-02T10:27:22.387Z,102178.72
2023-04-02T10:31:04.235Z,102194.06
2023-04-02T10:34:23.605Z,102194.72
2023-04-02T10:37:49.700Z,102203.16
2023-04-02T10:41:11.470Z,102205.38
2023-04-02T10:44:50.466Z,102192.13
2023-04-02T10:48:07.202Z,102201.50
2023-04-02T10:51:36.028Z,102204.38
2023-04-02T10:54:50.125Z,102208.38
2023-04-02T10:57:57.222Z,102207.47
2023-04-02T11:01:16.952Z,102216.25
2023-04-02T11:04:32.685Z,102208.75
2023-04-02T11:08:03.649Z,102212.75
2023-04-02T11:11:18.490Z,102209.03
2023-04-02T11:14:26.948Z,102231.53
2023-04-02T11:17:31.765Z,102234.28
2023-04-02T11:21:01.058Z,102224.81
2023-04-02T11:24:06.169Z,102231.50
2023-04-02T11:27:10.400Z,102237.50
2023-04-02T11:30:27.051Z,102237.50
2023-04-02T11:33:38.260Z,102238.63
2023-04-02T11:36:53.776Z,102249.22
2023-04-02T11:40:11.044Z,102234.59
2023-04-02T11:43:38.315Z,102255.88
2023-04-02T11:46:45.628Z,102256.75
2023-04-02T11:50:01.539Z,102271.41
2023-04-02T11:53:32.845Z,102251.97
2023-04-02T11:56:56.881Z,102261.41
2023-04-02T12:00:31.460Z,102247.25
2023-04-02T12:03:53.508Z,102274.13
2023-04-02T12:07:46.708Z,102282.06
2023-04-02T12:11:02.374Z,102288.56
2023-04-02T12:14:37.880Z,102293.56
2023-04-02T12:17:42.009Z,102297.13
2023-04-02T12:20:48.526Z,102296.56
2023-04-02T12:23:58.416Z,102291.31
2023-04-02T12:27:17.838Z,102296.03
2023-04-02T12:30:23.779Z,102295.59
2023-04-02T12:33:40.069Z,102302.16
2023-04-02T12:37:05.432Z,102288.97
2023-04-02T12:40:19.729Z,102295.13
2023-04-02T12:43:29.976Z,102289.84
2023-04-02T12:46:35.894Z,102290.41
2023-04-02T12:49:43.639Z,102298.00
2023-04-02T12:52:53.122Z,102297.66
2023-04-02T12:55:57.585Z,102302.06
2023-04-02T12:59:01.893Z,102310.69
2023-04-02T13:02:30.143Z,102315.03
2023-04-02T13:05:57.314Z,102330.63
2023-04-02T13:09:08.096Z,102320.91
2023-04-02T13:12:38.015Z,102329.41
2023-04-02T13:15:43.642Z,102323.06
2023-04-02T13:18:49.838Z,102324.50
2023-04-02T13:21:56.310Z,102323.41
2023-04-02T13:25:00.596Z,102337.84
2023-04-02T13:28:04.872Z,102346.00
2023-04-02T13:31:17.160Z,102338.84
2023-04-02T13:34:21.898Z,102338.03
2023-04-02T13:37:26.344Z,102345.34
2023-04-02T13:40:31.784Z,102347.75
2023-04-02T13:43:36.221Z,102335.00
2023-04-02T13:46:40.221Z,102340.72
2023-04-02T13:49:44.660Z,102340.16
2023-04-02T13:52:51.758Z,102339.09
2023-04-02T13:55:56.564Z,102346.34
2023-04-02T13:59:00.755Z,102354.88
2023-04-02T14:02:17.059Z,102365.00
2023-04-02T14:05:59.026Z,102355.31
2023-04-02T14:09:32.539Z,102357.16
2023-04-02T14:13:13.300Z,102367.59
2023-04-02T14:16:52.410Z,102356.53
2023-04-02T14:20:26.173Z,102360.31
2023-04-02T14:23:58.154Z,102377.25
2023-04-02T14:27:45.956Z,102375.88
2023-04-02T14:31:10.546Z,102371.22
2023-04-02T14:34:28.681Z,102389.56
2023-04-02T14:38:10.085Z,102390.50
2023-04-02T14:41:22.097Z,102380.25
2023-04-02T14:44:33.290Z,102390.56
2023-04-02T14:47:57.601Z,102389.56
2023-04-02T14:51:22.194Z,102378.00
2023-04-02T14:54:33.820Z,102391.97
2023-04-02T14:57:49.075Z,102385.72
2023-04-02T15:01:40.861Z,102400.25
2023-04-02T15:05:15.547Z,102398.09
2023-04-02T15:08:22.605Z,102394.78
2023-04-02T15:11:52.966Z,102413.03
2023-04-02T15:15:22.223Z,102422.84
2023-04-02T15:18:31.579Z,102425.16
2023-04-02T15:21:57.769Z,102418.97
2023-04-02T15:25:44.055Z,102418.81
2023-04-02T15:28:59.087Z,102424.75
2023-04-02T15:32:43.328Z,102437.28
2023-04-02T15:36:02.249Z,102439.97
2023-04-02T15:39:41.130Z,102434.59
2023-04-02T15:43:20.052Z,102435.63
2023-04-02T15:46:52.662Z,102447.59
2023-04-02T15:50:20.434Z,102447.91
2023-04-02T15:53:45.883Z,102441.16
2023-04-02T15:57:32.353Z,102456.59
2023-04-02T16:01:22.776Z,102464.63
2023-04-02T16:05:31.315Z,102466.50
2023-04-02T16:08:56.969Z,102473.00
2023-04-02T16:12:21.106Z,102474.84
2023-04-02T16:15:40.404Z,102479.66
2023-04-02T16:19:05.757Z,102481.69
2023-04-02T16:22:29.481Z,102486.28
2023-04-02T16:25:58.619Z,102484.66
2023-04-02T16:29:37.971Z,102498.19
2023-04-02T16:33:21.077Z,102499.13
2023-04-02T16:36:57.255Z,102502.56
2023-04-02T16:40:41.416Z,102521.00
2023-04-02T16:44:22.828Z,102529.38
2023-04-02T16:47:39.739Z,102537.22
2023-04-02T16:51:26.369Z,102550.59
2023-04-02T16:55:03.731Z,102552.28
2023-04-02T16:58:35.783Z,102569.84
2023-04-02T17:01:59.896Z,102575.44
2023-04-02T17:05:51.169Z,102576.94
2023-04-02T17:09:04.416Z,102578.78
2023-04-02T17:12:33.663Z,102590.28
2023-04-02T17:15:39.858Z,102597.25
2023-04-02T17:18:59.962Z,102603.25
2023-04-02T17:22:05.491Z,102611.47
2023-04-02T17:25:31.518Z,102612.66
2023-04-02T17:28:38.719Z,102621.50
2023-04-02T17:31:45.864Z,102635.44
2023-04-02T17:34:51.477Z,102629.50
2023-04-02T17:38:23.616Z,102645.31
2023-04-02T17:41:30.889Z,102658.44
2023-04-02T17:45:04.494Z,102662.88
2023-04-02T17:48:42.504Z,102676.81
2023-04-02T17:52:07.545Z,102682.00
2023-04-02T17:55:40.487Z,102683.75
2023-04-02T17:59:05.980Z,102700.25
2023-04-02T18:02:38.835Z,102702.84
2023-04-02T18:05:51.950Z,102708.06
2023-04-02T18:09:54.515Z,102714.09
2023-04-02T18:13:32.736Z,102725.34
2023-04-02T18:17:18.936Z,102727.91
2023-04-02T18:20:32.994Z,102733.94
2023-04-02T18:23:58.603Z,102737.38
2023-04-02T18:27:35.177Z,102753.84
2023-04-02T18:30:56.924Z,102752.94
2023-04-02T18:34:19.713Z,102748.50
2023-04-02T18:38:02.564Z,102765.81
2023-04-02T18:41:37.506Z,102776.16
2023-04-02T18:45:07.854Z,102773.50
2023-04-02T18:48:59.472Z,102788.22
2023-04-02T18:52:17.910Z,102796.81
2023-04-02T18:55:28.804Z,102790.69
2023-04-02T18:58:53.007Z,102801.91
2023-04-02T19:02:00.562Z,102807.84
2023-04-02T19:05:23.515Z,102804.31
2023-04-02T19:08:42.136Z,102816.38
2023-04-02T19:11:48.916Z,102812.00
2023-04-02T19:14:53.714Z,102830.16
2023-04-02T19:18:21.869Z,102820.50
2023-04-02T19:21:48.120Z,102830.84
2023-04-02T19:25:07.896Z,102831.56
2023-04-02T19:28:44.496Z,102838.41
2023-04-02T19:32:05.503Z,102840.94
2023-04-02T19:35:29.685Z,102841.69
2023-04-02T19:39:09.586Z,102843.34
2023-04-02T19:42:28.834Z,102843.28
2023-04-02T19:45:42.870Z,102847.56
2023-04-02T19:49:16.945Z,102853.47
2023-04-02T19:52:21.517Z,102859.47
2023-04-02T19:55:27.184Z,102864.66
2023-04-02T19:58:34.762Z,102864.59
2023-04-02T20:01:39.368Z,102872.28
2023-04-02T20:04:43.838Z,102870.47
2023-04-02T20:07:48.224Z,102870.34
2023-04-02T20:10:52.444Z,102876.44
2023-04-02T20:13:56.988Z,102882.31
2023-04-02T20:17:01.423Z,102882.19
2023-04-02T20:20:06.979Z,102892.50
2023-04-02T20:23:11.166Z,102896.88
2023-04-02T20:26:15.587Z,102903.56
2023-04-02T20:29:19.911Z,102906.09
2023-04-02T20:32:24.383Z,102911.19
2023-04-02T20:35:29.596Z,102912.09
2023-04-02T20:38:35.115Z,102928.53
2023-04-02T20:41:39.258Z,102922.38
2023-04-02T20:44:43.646Z,102927.44
2023-04-02T20:47:47.803Z,102925.66
2023-04-02T20:50:52.287Z,102929.91
2023-04-02T20:53:56.504Z,102938.41
2023-04-02T20:57:01.099Z,102946.19
2023-04-02T21:00:08.210Z,102940.78
2023-04-02T21:03:12.846Z,102950.19
2023-04-02T21:06:21.422Z,102950.03
2023-04-02T21:09:26.149Z,102963.88
2023-04-02T21:12:31.352Z,102959.50
2023-04-02T21:15:35.750Z,102967.22
2023-04-02T21:18:40.632Z,102969.72
2023-04-02T21:21:45.444Z,102977.50
2023-04-02T21:24:49.778Z,102979.94
2023-04-02T21:27:54.200Z,102984.25
2023-04-02T21:31:13.180Z,102985.88
2023-04-02T21:34:17.816Z,102993.69
2023-04-02T21:37:22.204Z,102991.94
2023-04-02T21:40:27.037Z,103000.47
2023-04-02T21:43:31.418Z,103005.53
2023-04-02T21:46:39.077Z,103009.84
2023-04-02T21:49:43.531Z,103002.72
2023-04-02T21:52:47.927Z,103006.28
2023-04-02T21:56:02.192Z,103005.47
2023-04-02T21:59:08.658Z,103002.91
2023-04-02T22:02:12.686Z,103009.59
2023-04-02T22:05:17.009Z,103009.41
2023-04-02T22:08:21.705Z,103020.66
2023-04-02T22:11:30.528Z,103017.13
2023-04-02T22:14:34.823Z,103014.53
2023-04-02T22:17:39.385Z,103018.72
2023-04-02T22:20:43.548Z,103029.06
2023-04-02T22:23:48.728Z,103017.00
2023-04-02T22:26:53.851Z,103021.31
2023-04-02T22:29:58.290Z,103024.84
2023-04-02T22:33:03.012Z,103023.00
2023-04-02T22:36:07.884Z,103027.28
2023-04-02T22:39:12.931Z,103027.22
2023-04-02T22:42:17.520Z,103025.38
2023-04-02T22:45:21.948Z,103030.56
2023-04-02T22:48:26.780Z,103033.13
2023-04-02T22:51:31.474Z,103039.88
2023-04-02T22:54:35.620Z,103045.91
2023-04-02T22:57:39.648Z,103039.09
2023-04-02T23:00:45.601Z,103047.69
2023-04-02T23:03:52.262Z,103039.09
2023-04-02T23:06:56.595Z,103053.69
2023-04-02T23:10:02.840Z,103052.59
2023-04-02T23:13:09.194Z,103053.44
2023-04-02T23:16:15.365Z,103058.56
2023-04-02T23:19:19.694Z,103060.13
2023-04-02T23:22:23.782Z,103061.06
2023-04-02T23:25:28.127Z,103064.34
2023-04-02T23:28:33.138Z,103075.56
2023-04-02T23:31:37.562Z,103082.31
2023-04-02T23:34:42.651Z,103083.09
2023-04-02T23:37:49.679Z,103086.47
2023-04-02T23:40:54.060Z,103089.69
2023-04-02T23:43:59.042Z,103100.09
2023-04-02T23:47:03.693Z,103095.78
2023-04-02T23:50:08.984Z,103100.13
2023-04-02T23:53:14.043Z,103096.72
2023-04-02T23:56:19.564Z,103105.31
2023-04-02T23:59:23.592Z,103114.69
